Time;durP1;ratioP1;P1;durP2;ratioP2;P2;SDS_P1;SDS_P2;PMS_P1;PMS_P2;Temp;Humidity;BMP_temperature;BMP_pressure;BME280_temperature;BME280_humidity;BME280_pressure;Samples;Min_cycle;Max_cycle;Signal;HPM_P1;HPM_P2
2022/09/12 00:00:42;;;;;;;11.60;6.93;;;;;;;;;;5010775;28;20213;-52
2022/09/12 00:03:08;;;;;;;14.90;7.57;;;;;;;;;;5010701;28;20174;-52
2022/09/12 00:05:34;;;;;;;13.52;6.80;;;;;;;;;;5009982;28;20261;-52
2022/09/12 00:08:00;;;;;;;12.35;6.80;;;16.90;99.90;;;;;;5018853;28;20174;-53
2022/09/12 00:10:26;;;;;;;12.70;6.72;;;17.40;99.90;;;;;;5030152;28;20649;-52
2022/09/12 00:12:52;;;;;;;16.00;6.50;;;;;;;;;;5029543;28;20181;-52
2022/09/12 00:15:18;;;;;;;12.82;6.95;;;;;;;;;;5029886;28;20599;-52
2022/09/12 00:17:43;;;;;;;13.13;6.82;;;17.10;99.90;;;;;;5030101;28;20175;-52
2022/09/12 00:20:10;;;;;;;10.80;7.30;;;17.00;99.90;;;;;;5030051;28;20202;-52
2022/09/12 00:22:36;;;;;;;9.07;6.78;;;17.10;99.90;;;;;;5030194;28;20178;-53
2022/09/12 00:25:03;;;;;;;14.23;7.85;;;17.00;99.90;;;;;;5032244;28;20170;-53
2022/09/12 00:27:28;;;;;;;14.50;7.65;;;17.00;99.90;;;;;;5032600;28;20178;-53
2022/09/12 00:29:54;;;;;;;14.55;7.95;;;17.20;99.90;;;;;;5033870;28;20656;-53
2022/09/12 00:32:20;;;;;;;10.25;6.95;;;;;;;;;;5033741;28;20649;-52
2022/09/12 00:34:46;;;;;;;12.18;6.55;;;17.10;99.90;;;;;;5033617;28;20170;-52
2022/09/12 00:37:12;;;;;;;12.65;7.25;;;17.10;99.90;;;;;;5033517;28;20583;-52
2022/09/12 00:39:39;;;;;;;9.38;6.00;;;;;;;;;;5033145;28;20531;-52
2022/09/12 00:42:05;;;;;;;10.95;5.20;;;;;;;;;;5033202;28;20228;-52
2022/09/12 00:44:33;;;;;;;12.75;6.45;;;17.10;99.90;;;;;;5033439;28;20216;-52
2022/09/12 00:46:59;;;;;;;13.68;6.60;;;;;;;;;;5033221;28;20228;-52
2022/09/12 00:49:30;;;;;;;15.15;6.93;;;17.10;99.90;;;;;;5033382;28;20170;-53
2022/09/12 00:52:24;;;;;;;12.73;6.20;;;17.00;99.90;;;;;;5033343;28;20265;-52
2022/09/12 00:55:06;;;;;;;9.13;6.25;;;17.10;99.90;;;;;;5033374;28;20249;-52
2022/09/12 00:57:38;;;;;;;10.30;7.00;;;16.90;99.90;;;;;;5032885;28;20245;-52
2022/09/12 01:00:16;;;;;;;12.63;8.07;;;17.00;99.90;;;;;;5033122;28;20228;-52
2022/09/12 01:02:45;;;;;;;17.23;8.52;;;17.00;99.90;;;;;;5033047;28;20174;-52
2022/09/12 01:05:12;;;;;;;15.70;8.77;;;17.00;99.90;;;;;;5032629;28;20174;-52
2022/09/12 01:07:38;;;;;;;15.27;8.82;;;17.00;99.90;;;;;;5020561;28;20191;-52
2022/09/12 01:10:06;;;;;;;16.23;9.30;;;16.90;99.90;;;;;;5031807;28;20216;-52
2022/09/12 01:12:33;;;;;;;18.27;8.95;;;16.70;99.90;;;;;;5026865;28;20255;-52
2022/09/12 01:14:59;;;;;;;15.82;9.95;;;17.00;99.90;;;;;;5012934;28;20207;-52
2022/09/12 01:17:43;;;;;;;14.63;8.82;;;16.90;99.90;;;;;;5012945;28;20277;-54
2022/09/12 01:20:40;;;;;;;13.35;9.25;;;17.10;99.90;;;;;;5011764;28;20611;-52
2022/09/12 01:23:33;;;;;;;14.05;9.25;;;17.00;99.90;;;;;;5012963;28;20290;-53
2022/09/12 01:26:30;;;;;;;17.35;9.93;;;17.00;99.90;;;;;;5013094;28;20324;-52
2022/09/12 01:29:11;;;;;;;14.43;9.50;;;16.90;99.90;;;;;;5012748;28;20173;-53
2022/09/12 01:31:46;;;;;;;16.45;9.43;;;17.00;99.90;;;;;;5023702;28;20667;-52
2022/09/12 01:34:26;;;;;;;14.63;9.05;;;17.10;99.90;;;;;;5032310;28;20184;-52
2022/09/12 01:37:18;;;;;;;12.98;9.27;;;16.90;99.90;;;;;;5031097;28;20205;-52
2022/09/12 01:40:15;;;;;;;14.07;9.05;;;16.90;99.90;;;;;;5032368;28;20170;-52
2022/09/12 01:42:59;;;;;;;13.45;9.23;;;16.70;99.90;;;;;;5032596;28;20194;-52
2022/09/12 01:45:46;;;;;;;19.75;9.73;;;18.50;99.90;;;;;;5031998;28;20204;-53
2022/09/12 01:48:23;;;;;;;15.48;9.73;;;16.90;99.90;;;;;;5032150;28;20188;-52
2022/09/12 01:50:53;;;;;;;15.48;9.38;;;16.70;99.90;;;;;;5031994;28;20212;-52
2022/09/12 01:53:48;;;;;;;14.07;8.93;;;16.90;99.90;;;;;;5032183;28;20604;-52
2022/09/12 01:56:25;;;;;;;14.35;8.38;;;16.90;99.90;;;;;;5029849;28;20192;-52
2022/09/12 01:59:04;;;;;;;12.25;8.38;;;16.30;99.90;;;;;;5031669;28;20239;-52
2022/09/12 02:01:35;;;;;;;15.93;8.18;;;16.90;99.90;;;;;;5031917;28;20234;-52
2022/09/12 02:04:15;;;;;;;13.38;8.70;;;17.00;99.90;;;;;;5032031;28;20170;-52
2022/09/12 02:06:41;;;;;;;13.55;8.43;;;16.90;99.90;;;;;;5031904;28;20172;-52
2022/09/12 02:09:17;;;;;;;12.52;8.32;;;17.00;99.90;;;;;;5031765;28;20162;-52
2022/09/12 02:11:43;;;;;;;14.07;8.00;;;17.00;99.90;;;;;;5031802;28;20257;-52
2022/09/12 02:14:23;;;;;;;12.73;8.82;;;17.00;99.90;;;;;;5031990;28;20197;-52
2022/09/12 02:16:57;;;;;;;14.18;8.05;;;17.30;99.90;;;;;;5031782;28;20177;-52
2022/09/12 02:19:26;;;;;;;16.15;7.90;;;17.10;99.90;;;;;;5031664;28;20192;-52
2022/09/12 02:22:01;;;;;;;12.18;8.40;;;17.10;99.90;;;;;;5031549;28;20672;-52
2022/09/12 02:24:38;;;;;;;14.52;7.72;;;16.90;99.90;;;;;;5011919;28;20174;-52
2022/09/12 02:27:42;;;;;;;13.65;7.60;;;17.00;99.90;;;;;;5011674;28;20182;-52
2022/09/12 02:30:09;;;;;;;16.02;7.88;;;17.00;99.90;;;;;;5011701;28;20170;-52
2022/09/12 02:33:01;;;;;;;15.55;8.82;;;17.00;99.90;;;;;;5021792;28;20186;-52
2022/09/12 02:36:03;;;;;;;12.75;7.82;;;17.10;99.90;;;;;;5031396;28;20193;-52
2022/09/12 02:38:44;;;;;;;13.18;8.18;;;17.00;99.90;;;;;;5018237;28;20196;-52
2022/09/12 02:41:11;;;;;;;12.30;7.55;;;17.00;99.90;;;;;;5030777;28;20224;-52
2022/09/12 02:43:37;;;;;;;15.73;7.97;;;17.00;99.90;;;;;;5031279;28;20173;-52
2022/09/12 02:46:09;;;;;;;13.73;8.02;;;16.90;99.90;;;;;;5031165;28;20531;-52
2022/09/12 02:48:39;;;;;;;12.60;7.90;;;17.00;99.90;;;;;;5030813;28;20170;-52
2022/09/12 02:51:05;;;;;;;12.95;7.75;;;;;;;;;;5031279;28;20178;-52
2022/09/12 02:53:32;;;;;;;17.23;7.43;;;17.00;99.90;;;;;;5030994;28;20162;-52
2022/09/12 02:55:58;;;;;;;11.40;8.27;;;17.00;99.90;;;;;;5031027;28;20644;-52
2022/09/12 02:58:27;;;;;;;11.57;7.68;;;16.80;99.90;;;;;;5030715;28;20181;-52
2022/09/12 03:00:56;;;;;;;13.07;7.63;;;16.90;99.90;;;;;;5030946;28;20731;-52
2022/09/12 03:03:33;;;;;;;14.60;7.88;;;16.90;99.90;;;;;;5030873;28;20173;-52
2022/09/12 03:06:04;;;;;;;15.15;6.60;;;16.90;99.90;;;;;;5030995;28;20173;-52
2022/09/12 03:09:01;;;;;;;13.10;6.88;;;16.60;99.90;;;;;;5030933;28;20531;-52
2022/09/12 03:11:42;;;;;;;16.23;6.53;;;16.90;99.90;;;;;;5030758;28;20177;-52
2022/09/12 03:14:26;;;;;;;14.23;6.88;;;16.80;99.90;;;;;;5028536;28;20178;-52
2022/09/12 03:17:18;;;;;;;11.95;6.53;;;16.90;99.90;;;;;;5029030;28;20261;-52
2022/09/12 03:19:52;;;;;;;12.27;6.38;;;16.80;99.90;;;;;;5030528;28;20189;-52
2022/09/12 03:22:20;;;;;;;9.25;6.13;;;17.10;99.90;;;;;;5010801;28;20174;-53
2022/09/12 03:25:15;;;;;;;12.35;6.40;;;17.10;99.90;;;;;;5010984;28;20177;-53
2022/09/12 03:28:10;;;;;;;8.68;5.43;;;17.10;99.90;;;;;;5007928;28;20205;-53
2022/09/12 03:30:41;;;;;;;9.90;5.22;;;17.20;99.90;;;;;;5030520;28;20596;-53
2022/09/12 03:33:14;;;;;;;9.93;4.88;;;17.10;99.90;;;;;;5030695;28;20254;-53
2022/09/12 03:35:40;;;;;;;7.75;4.50;;;17.10;99.90;;;;;;5029585;28;20184;-53
2022/09/12 03:38:09;;;;;;;13.80;5.00;;;;;;;;;;5030300;28;20174;-53
2022/09/12 03:40:36;;;;;;;11.60;5.25;;;17.00;99.90;;;;;;5030410;28;20321;-52
2022/09/12 03:43:03;;;;;;;11.82;5.15;;;17.00;99.90;;;;;;5030254;28;20178;-52
2022/09/12 03:45:29;;;;;;;8.68;4.70;;;;;;;;;;5030674;28;20182;-52
2022/09/12 03:47:54;;;;;;;8.57;4.88;;;16.90;99.90;;;;;;5030618;28;20170;-52
2022/09/12 03:50:20;;;;;;;6.30;4.45;;;18.70;99.90;;;;;;5030457;28;20536;-52
2022/09/12 03:52:46;;;;;;;8.82;3.78;;;17.10;99.90;;;;;;5030205;28;20180;-52
2022/09/12 03:55:11;;;;;;;9.07;3.90;;;16.90;99.90;;;;;;5030401;28;20583;-52
2022/09/12 03:57:37;;;;;;;7.90;4.47;;;17.00;99.90;;;;;;5030429;28;20166;-52
2022/09/12 04:00:06;;;;;;;6.60;3.65;;;16.90;99.90;;;;;;5032684;28;20197;-52
2022/09/12 04:02:31;;;;;;;4.45;3.60;;;16.90;99.90;;;;;;5034418;28;20182;-52
2022/09/12 04:04:57;;;;;;;4.72;3.38;;;;;;;;;;5034309;28;20547;-52
2022/09/12 04:07:23;;;;;;;7.30;3.60;;;;;;;;;;5034060;28;20174;-52
2022/09/12 04:09:49;;;;;;;8.93;4.90;;;17.20;99.90;;;;;;5033969;28;20279;-53
2022/09/12 04:12:15;;;;;;;7.00;3.58;;;;;;;;;;5034104;28;20600;-53
2022/09/12 04:14:41;;;;;;;9.27;3.60;;;16.80;99.90;;;;;;5030860;28;20188;-52
2022/09/12 04:17:07;;;;;;;9.85;3.78;;;17.10;99.90;;;;;;5033951;28;20170;-52
2022/09/12 04:19:32;;;;;;;13.38;3.75;;;16.90;99.90;;;;;;5033736;28;20178;-52
2022/09/12 04:21:58;;;;;;;8.65;4.22;;;;;;;;;;5033981;28;20293;-52
2022/09/12 04:24:24;;;;;;;10.40;4.75;;;17.20;99.90;;;;;;5032918;28;20693;-52
2022/09/12 04:26:50;;;;;;;8.68;4.30;;;;;;;;;;5033653;28;20188;-52
2022/09/12 04:29:16;;;;;;;11.63;4.63;;;;;;;;;;5033997;28;20190;-52
2022/09/12 04:31:42;;;;;;;9.45;4.35;;;17.00;99.90;;;;;;5033674;28;20205;-52
2022/09/12 04:34:08;;;;;;;12.63;4.75;;;17.00;99.90;;;;;;5033221;28;20212;-52
2022/09/12 04:36:34;;;;;;;9.18;4.47;;;;;;;;;;5033562;28;20181;-52
2022/09/12 04:39:02;;;;;;;10.88;4.72;;;17.20;99.90;;;;;;5033519;28;20170;-52
2022/09/12 04:41:30;;;;;;;17.35;5.72;;;17.10;99.90;;;;;;5033223;28;20314;-52
2022/09/12 04:44:03;;;;;;;11.70;5.25;;;17.20;99.90;;;;;;5033458;28;20170;-52
2022/09/12 04:46:31;;;;;;;13.50;5.50;;;17.30;99.90;;;;;;5033670;28;20178;-52
2022/09/12 04:48:57;;;;;;;12.40;5.45;;;17.10;99.90;;;;;;5033357;28;20169;-52
2022/09/12 04:51:26;;;;;;;11.50;5.80;;;17.30;99.90;;;;;;5033434;28;20170;-52
2022/09/12 04:53:54;;;;;;;10.25;5.78;;;17.30;99.90;;;;;;5033257;28;20193;-52
2022/09/12 04:56:20;;;;;;;8.82;5.25;;;17.30;99.90;;;;;;5033254;28;20177;-53
2022/09/12 04:58:46;;;;;;;13.15;5.13;;;17.30;99.90;;;;;;5031892;28;20196;-52
2022/09/12 05:01:14;;;;;;;6.95;4.97;;;17.30;99.90;;;;;;5032997;28;20209;-52
2022/09/12 05:03:45;;;;;;;10.23;5.28;;;17.20;99.90;;;;;;5033137;28;20165;-52
2022/09/12 05:06:16;;;;;;;9.45;4.78;;;17.20;99.90;;;;;;5032728;28;20173;-52
2022/09/12 05:08:42;;;;;;;8.23;5.53;;;17.40;99.90;;;;;;5033257;28;20177;-52
2022/09/12 05:11:14;;;;;;;11.13;5.53;;;16.80;99.90;;;;;;5032991;28;20185;-52
2022/09/12 05:13:40;;;;;;;11.27;5.07;;;16.60;99.90;;;;;;5032927;28;20248;-52
2022/09/12 05:16:08;;;;;;;10.32;5.15;;;16.80;99.90;;;;;;5032674;28;20201;-52
2022/09/12 05:18:35;;;;;;;9.20;5.00;;;16.80;99.90;;;;;;5032813;28;20197;-52
2022/09/12 05:21:03;;;;;;;11.40;4.70;;;16.90;99.90;;;;;;5031399;28;20206;-52
2022/09/12 05:23:29;;;;;;;9.13;4.38;;;16.60;99.90;;;;;;5032604;28;20178;-52
2022/09/12 05:25:56;;;;;;;8.70;4.75;;;16.80;99.90;;;;;;5032740;28;20178;-52
2022/09/12 05:28:23;;;;;;;10.45;5.45;;;16.80;99.90;;;;;;5032679;28;20178;-52
2022/09/12 05:31:11;;;;;;;16.42;4.70;;;17.60;99.90;;;;;;5032541;28;20185;-53
2022/09/12 05:33:38;;;;;;;9.45;4.70;;;16.60;99.90;;;;;;5032251;28;20170;-53
2022/09/12 05:36:06;;;;;;;10.38;4.25;;;16.60;99.90;;;;;;5032478;28;20543;-53
2022/09/12 05:38:36;;;;;;;6.63;4.45;;;16.50;99.90;;;;;;5032507;28;20193;-51
2022/09/12 05:41:06;;;;;;;10.50;4.72;;;16.80;99.90;;;;;;5032214;28;20328;-51
2022/09/12 05:43:39;;;;;;;10.57;4.68;;;16.50;99.90;;;;;;5032085;28;20304;-51
2022/09/12 05:46:09;;;;;;;11.02;5.05;;;16.50;99.90;;;;;;5032622;28;20197;-52
2022/09/12 05:48:35;;;;;;;9.27;5.18;;;16.60;99.90;;;;;;5032516;28;20197;-51
2022/09/12 05:51:25;;;;;;;9.05;4.88;;;16.80;99.90;;;;;;5032312;28;20224;-51
2022/09/12 05:53:57;;;;;;;10.55;4.22;;;16.70;99.90;;;;;;5032127;28;20532;-51
2022/09/12 05:56:28;;;;;;;10.00;4.13;;;16.70;99.90;;;;;;5032090;28;20181;-51
2022/09/12 05:59:00;;;;;;;6.88;4.25;;;16.90;99.90;;;;;;5031717;28;20177;-51
2022/09/12 06:01:27;;;;;;;10.20;4.60;;;16.70;99.90;;;;;;5031689;28;20418;-52
2022/09/12 06:03:55;;;;;;;8.18;4.63;;;16.70;99.90;;;;;;5031833;28;20170;-52
2022/09/12 06:06:23;;;;;;;12.93;4.90;;;16.90;99.90;;;;;;5031859;28;20181;-52
2022/09/12 06:08:51;;;;;;;8.82;4.60;;;16.80;99.90;;;;;;5031431;28;20182;-52
2022/09/12 06:11:20;;;;;;;10.90;4.68;;;16.90;99.90;;;;;;5031904;28;20182;-52
2022/09/12 06:13:46;;;;;;;11.27;4.25;;;16.60;99.90;;;;;;5032035;28;20170;-52
2022/09/12 06:16:18;;;;;;;12.55;4.53;;;17.00;99.90;;;;;;5031695;28;20185;-52
2022/09/12 06:18:52;;;;;;;9.73;4.13;;;16.90;99.90;;;;;;5031697;28;20189;-52
2022/09/12 06:21:19;;;;;;;16.52;4.30;;;17.10;99.90;;;;;;5018548;28;20215;-52
2022/09/12 06:23:46;;;;;;;14.23;4.45;;;17.10;99.90;;;;;;5031333;28;20497;-52
2022/09/12 06:26:14;;;;;;;14.70;5.00;;;17.30;99.90;;;;;;5031441;28;20333;-52
2022/09/12 06:28:43;;;;;;;11.88;4.15;;;17.20;99.90;;;;;;5031411;28;20170;-52
2022/09/12 06:31:12;;;;;;;9.20;3.97;;;17.30;99.90;;;;;;5031080;28;20229;-52
2022/09/12 06:33:41;;;;;;;10.85;4.13;;;17.60;99.90;;;;;;5030477;28;20182;-52
2022/09/12 06:36:09;;;;;;;13.45;4.10;;;17.60;99.90;;;;;;5031241;28;20521;-52
2022/09/12 06:38:37;;;;;;;6.78;4.32;;;17.50;99.90;;;;;;5031187;28;20182;-56
2022/09/12 06:41:04;;;;;;;8.95;4.00;;;17.60;99.90;;;;;;5030680;28;20360;-53
2022/09/12 06:43:30;;;;;;;10.82;4.10;;;17.60;99.90;;;;;;5030986;28;20174;-52
2022/09/12 06:45:56;;;;;;;13.75;4.45;;;17.50;99.90;;;;;;5030998;28;20180;-52
2022/09/12 06:48:22;;;;;;;11.50;4.00;;;17.80;99.90;;;;;;5031064;28;20265;-52
2022/09/12 06:51:02;;;;;;;9.57;4.57;;;17.90;99.90;;;;;;5023575;28;20253;-50
2022/09/12 06:53:29;;;;;;;11.90;5.10;;;17.90;99.90;;;;;;5030521;28;20185;-50
2022/09/12 06:56:00;;;;;;;13.20;5.35;;;17.80;99.90;;;;;;5030324;28;20216;-50
2022/09/12 06:58:27;;;;;;;9.10;4.93;;;17.90;99.90;;;;;;5031083;28;20708;-52
2022/09/12 07:01:06;;;;;;;13.02;5.47;;;17.90;99.90;;;;;;5038702;28;20245;-52
2022/09/12 07:03:33;;;;;;;13.52;4.90;;;17.90;99.90;;;;;;5030775;28;20189;-53
2022/09/12 07:06:08;;;;;;;10.63;4.22;;;18.00;99.90;;;;;;5047013;28;20590;-52
2022/09/12 07:08:35;;;;;;;10.98;4.63;;;;;;;;;;5041159;28;20171;-51
2022/09/12 07:11:12;;;;;;;16.70;5.63;;;18.20;99.90;;;;;;5030139;28;20265;-50
2022/09/12 07:13:39;;;;;;;14.50;6.15;;;18.20;99.90;;;;;;5030166;28;20174;-51
2022/09/12 07:16:05;;;;;;;11.65;5.07;;;18.30;99.90;;;;;;5030300;28;20173;-50
2022/09/12 07:18:33;;;;;;;13.00;5.70;;;18.40;99.90;;;;;;5030286;28;20174;-50
2022/09/12 07:21:03;;;;;;;6.75;4.82;;;18.40;99.90;;;;;;5030322;28;20221;-51
2022/09/12 07:23:29;;;;;;;10.02;4.82;;;18.60;99.90;;;;;;5030222;28;20177;-51
2022/09/12 07:25:57;;;;;;;14.43;5.43;;;18.60;99.90;;;;;;5030845;28;20176;-51
2022/09/12 07:28:27;;;;;;;8.70;5.43;;;18.70;99.90;;;;;;5030478;28;20174;-51
2022/09/12 07:30:53;;;;;;;13.25;5.90;;;18.70;99.90;;;;;;5030443;28;20176;-50
2022/09/12 07:33:28;;;;;;;15.73;6.47;;;18.90;99.90;;;;;;5030140;28;20256;-51
2022/09/12 07:35:54;;;;;;;18.17;7.20;;;19.00;99.90;;;;;;5033462;28;20173;-52
2022/09/12 07:38:20;;;;;;;16.63;7.40;;;18.80;99.90;;;;;;5033755;28;20632;-51
2022/09/12 07:40:46;;;;;;;13.93;6.90;;;19.10;99.90;;;;;;5033880;28;20615;-52
2022/09/12 07:43:12;;;;;;;10.63;6.97;;;19.20;99.90;;;;;;5034547;28;20170;-50
2022/09/12 07:45:40;;;;;;;11.35;6.80;;;19.30;99.90;;;;;;5034216;28;20656;-50
2022/09/12 07:48:06;;;;;;;14.50;7.35;;;19.40;99.90;;;;;;5034268;28;20185;-50
2022/09/12 07:50:32;;;;;;;14.98;7.22;;;19.20;99.90;;;;;;5032430;28;20511;-51
2022/09/12 07:52:58;;;;;;;15.35;7.50;;;19.30;99.90;;;;;;5033967;28;20182;-51
2022/09/12 07:55:23;;;;;;;14.68;7.80;;;19.40;99.90;;;;;;5034005;28;20174;-52
2022/09/12 07:57:50;;;;;;;11.70;7.50;;;19.60;99.90;;;;;;5034157;28;20173;-51
2022/09/12 08:00:17;;;;;;;15.60;7.93;;;19.50;99.90;;;;;;5033597;28;20198;-51
2022/09/12 08:02:43;;;;;;;16.02;7.05;;;19.30;99.90;;;;;;5033911;28;20370;-51
2022/09/12 08:05:08;;;;;;;14.95;7.57;;;19.50;99.90;;;;;;5033482;28;20265;-51
2022/09/12 08:07:34;;;;;;;14.73;6.85;;;19.50;99.90;;;;;;5033745;28;20182;-51
2022/09/12 08:10:00;;;;;;;19.08;7.70;;;19.70;99.90;;;;;;5033828;28;20249;-51
2022/09/12 08:12:28;;;;;;;18.92;7.63;;;19.80;99.90;;;;;;5033927;28;20592;-51
2022/09/12 08:14:54;;;;;;;11.90;7.07;;;19.60;99.90;;;;;;5033929;28;20244;-52
2022/09/12 08:17:20;;;;;;;15.70;6.80;;;19.60;99.90;;;;;;5033628;28;20702;-52
2022/09/12 08:19:45;;;;;;;17.73;7.22;;;19.60;99.90;;;;;;5033513;28;20640;-52
2022/09/12 08:22:12;;;;;;;15.48;7.50;;;19.40;99.90;;;;;;5033720;28;20259;-54
2022/09/12 08:24:40;;;;;;;18.52;7.90;;;19.50;99.90;;;;;;5027776;28;20171;-54
2022/09/12 08:27:06;;;;;;;20.27;7.38;;;19.30;99.90;;;;;;5021407;28;20174;-54
2022/09/12 08:29:32;;;;;;;12.25;7.40;;;19.60;99.90;;;;;;5033704;28;20173;-54
2022/09/12 08:31:58;;;;;;;16.08;6.60;;;19.90;99.90;;;;;;5029616;28;20292;-54
2022/09/12 08:34:25;;;;;;;16.60;7.60;;;;;;;;;;5015655;28;20197;-54
2022/09/12 08:36:53;;;;;;;12.05;7.57;;;19.90;99.90;;;;;;5023449;28;20174;-54
2022/09/12 08:39:19;;;;;;;15.80;8.15;;;20.70;99.90;;;;;;5033216;28;20193;-54
2022/09/12 08:41:54;;;;;;;16.20;7.30;;;21.50;99.90;;;;;;5033207;28;20578;-54
2022/09/12 08:44:42;;;;;;;15.27;6.88;;;22.60;99.90;;;;;;5033229;28;20170;-54
2022/09/12 08:47:16;;;;;;;13.13;7.13;;;23.20;99.90;;;;;;5033386;28;20192;-54
2022/09/12 08:49:58;;;;;;;13.75;6.30;;;23.70;99.90;;;;;;5033491;28;20173;-54
2022/09/12 08:52:48;;;;;;;15.23;7.00;;;23.80;99.90;;;;;;5033281;28;20170;-55
2022/09/12 08:55:23;;;;;;;13.65;5.43;;;25.60;99.90;;;;;;5033158;28;20645;-53
2022/09/12 08:57:50;;;;;;;11.18;5.25;;;26.60;99.90;;;;;;5033465;28;20185;-54
2022/09/12 09:00:18;;;;;;;17.05;5.20;;;27.50;99.90;;;;;;5033118;28;20633;-54
2022/09/12 09:03:08;;;;;;;8.95;4.97;;;26.70;99.90;;;;;;5033129;28;20166;-54
2022/09/12 09:05:43;;;;;;;10.13;4.75;;;26.70;99.90;;;;;;5032945;28;20169;-54
2022/09/12 09:08:38;;;;;;;8.93;4.30;;;25.70;99.90;;;;;;5027372;28;20174;-54
2022/09/12 09:11:30;;;;;;;10.80;4.45;;;26.00;99.90;;;;;;5032650;28;20194;-54
2022/09/12 09:16:55;;;;;;;7.93;3.95;;;27.80;99.90;;;;;;5032915;28;20173;-55
2022/09/12 09:19:23;;;;;;;10.93;4.07;;;27.80;99.90;;;;;;5032780;28;20185;-54
2022/09/12 09:21:57;;;;;;;8.88;3.78;;;27.40;99.90;;;;;;5032776;28;20209;-54
2022/09/12 09:24:33;;;;;;;9.90;4.38;;;28.10;99.90;;;;;;5032542;28;20201;-54
2022/09/12 09:26:59;;;;;;;7.93;3.33;;;26.70;99.90;;;;;;5032714;28;20180;-54
2022/09/12 09:29:54;;;;;;;7.15;3.38;;;26.20;99.90;;;;;;5029606;28;20237;-54
2022/09/12 09:32:28;;;;;;;10.80;3.85;;;25.60;99.90;;;;;;5023139;28;20217;-54
2022/09/12 09:34:54;;;;;;;13.00;3.78;;;;;;;;;;5022377;28;20198;-54
2022/09/12 09:37:33;;;;;;;10.93;3.97;;;26.30;99.90;;;;;;5027728;28;20236;-54
2022/09/12 09:40:16;;;;;;;8.32;3.80;;;27.10;99.90;;;;;;5052189;28;20169;-54
2022/09/12 09:43:07;;;;;;;5.47;3.22;;;27.60;99.90;;;;;;5014413;28;20186;-54
2022/09/12 09:45:33;;;;;;;7.43;3.50;;;28.70;99.90;;;;;;5031706;28;20170;-54
2022/09/12 09:48:09;;;;;;;10.18;3.75;;;28.40;99.90;;;;;;5032240;28;20192;-54
2022/09/12 09:50:36;;;;;;;6.00;3.35;;;29.20;99.90;;;;;;5032123;28;20170;-54
2022/09/12 09:53:04;;;;;;;8.43;3.97;;;29.20;99.90;;;;;;5031429;28;20233;-54
2022/09/12 09:55:37;;;;;;;10.10;3.42;;;29.40;99.90;;;;;;5012520;28;20171;-54
2022/09/12 09:58:03;;;;;;;10.48;3.72;;;29.80;99.90;;;;;;5013196;28;20831;-54
2022/09/12 10:00:34;;;;;;;10.18;3.13;;;29.50;99.90;;;;;;5031674;28;20212;-54
2022/09/12 10:03:13;;;;;;;10.10;3.45;;;29.50;99.90;;;;;;5032130;28;20273;-54
2022/09/12 10:05:57;;;;;;;8.80;3.47;;;30.10;99.90;;;;;;5029661;28;20248;-55
2022/09/12 10:08:28;;;;;;;5.68;2.80;;;30.40;99.90;;;;;;5028381;28;20652;-54
2022/09/12 10:10:57;;;;;;;10.27;3.83;;;30.30;99.90;;;;;;5030243;28;20169;-54
2022/09/12 10:13:29;;;;;;;11.60;3.63;;;30.10;99.90;;;;;;5030251;28;20648;-54
2022/09/12 10:16:01;;;;;;;15.07;3.33;;;30.20;99.90;;;;;;5030312;28;20177;-54
2022/09/12 10:18:41;;;;;;;7.05;3.10;;;31.10;99.90;;;;;;5029838;28;20173;-54
2022/09/12 10:21:50;;;;;;;11.30;3.28;;;31.30;99.90;;;;;;5031786;28;20255;-55
2022/09/12 10:24:26;;;;;;;6.32;3.20;;;31.40;99.90;;;;;;5031666;28;20252;-54
2022/09/12 10:27:08;;;;;;;10.80;2.80;;;29.70;99.90;;;;;;5031017;28;20173;-54
2022/09/12 10:29:42;;;;;;;7.10;2.95;;;27.90;99.90;;;;;;5021063;28;20204;-54
2022/09/12 10:32:08;;;;;;;11.60;3.35;;;28.20;99.90;;;;;;5030786;28;20250;-57
2022/09/12 10:34:42;;;;;;;7.60;2.95;;;28.40;99.90;;;;;;5031342;28;20644;-54
2022/09/12 10:37:15;;;;;;;5.75;2.50;;;28.00;99.90;;;;;;5030895;28;20200;-54
2022/09/12 10:39:53;;;;;;;7.05;2.70;;;29.80;99.90;;;;;;5031218;28;20185;-53
2022/09/12 10:42:41;;;;;;;6.35;2.17;;;31.10;99.90;;;;;;5030899;28;20231;-54
2022/09/12 10:45:18;;;;;;;5.25;2.47;;;30.50;99.90;;;;;;5030630;28;20521;-53
2022/09/12 10:47:44;;;;;;;5.90;2.13;;;30.60;99.90;;;;;;5031025;28;20581;-54
2022/09/12 10:50:27;;;;;;;6.60;2.53;;;30.80;99.90;;;;;;5031085;28;20200;-53
2022/09/12 10:52:53;;;;;;;6.15;1.40;;;32.60;99.90;;;;;;5031164;28;20177;-54
2022/09/12 10:55:29;;;;;;;4.25;1.58;;;32.60;99.90;;;;;;5030778;28;20248;-54
2022/09/12 10:58:33;;;;;;;3.50;1.40;;;33.70;99.90;;;;;;5030392;28;20173;-53
2022/09/12 11:01:11;;;;;;;3.63;1.30;;;33.80;99.90;;;;;;5009494;28;20189;-53
2022/09/12 11:03:49;;;;;;;2.40;1.25;;;33.30;99.90;;;;;;5030974;28;20251;-53
2022/09/12 11:06:26;;;;;;;2.47;0.90;;;33.30;99.90;;;;;;5030834;28;20196;-53
2022/09/12 11:09:34;;;;;;;3.70;1.60;;;33.30;99.90;;;;;;5030717;28;20203;-53
2022/09/12 11:12:18;;;;;;;2.67;1.10;;;33.90;99.90;;;;;;5010679;28;20213;-53
2022/09/12 11:15:11;;;;;;;4.78;1.52;;;34.30;99.90;;;;;;5029574;28;20184;-54
2022/09/12 11:17:55;;;;;;;4.22;1.25;;;32.20;99.90;;;;;;5030256;28;20170;-53
2022/09/12 11:20:46;;;;;;;4.85;1.52;;;31.00;99.90;;;;;;5028944;28;20184;-53
2022/09/12 11:23:23;;;;;;;6.82;1.20;;;29.80;99.90;;;;;;5030618;28;20182;-52
2022/09/12 11:26:05;;;;;;;5.80;1.20;;;29.20;99.90;;;;;;5030304;28;20168;-52
2022/09/12 11:28:53;;;;;;;6.43;1.10;;;29.00;99.90;;;;;;5029766;28;20232;-52
2022/09/12 11:31:49;;;;;;;3.90;1.27;;;28.80;99.90;;;;;;5030219;28;20209;-53
2022/09/12 11:34:28;;;;;;;8.55;1.42;;;28.10;99.90;;;;;;5026334;28;20197;-53
2022/09/12 11:37:26;;;;;;;4.95;1.40;;;28.10;99.90;;;;;;5019337;28;20185;-52
2022/09/12 11:39:55;;;;;;;3.28;1.00;;;27.60;99.90;;;;;;5017035;28;20173;-53
2022/09/12 11:42:34;;;;;;;3.13;0.80;;;28.00;99.90;;;;;;5030145;28;20700;-52
2022/09/12 11:45:16;;;;;;;2.60;0.88;;;27.90;99.90;;;;;;5030341;28;20174;-52
2022/09/12 11:47:47;;;;;;;1.30;0.70;;;27.20;99.90;;;;;;5010646;28;20712;-52
2022/09/12 11:50:27;;;;;;;2.20;0.80;;;27.00;99.90;;;;;;5010669;28;20206;-52
2022/09/12 11:53:10;;;;;;;3.80;0.95;;;27.30;99.90;;;;;;5017573;28;20224;-52
2022/09/12 11:55:51;;;;;;;2.05;0.68;;;27.00;99.90;;;;;;5030237;28;20193;-52
2022/09/12 11:58:19;;;;;;;2.95;0.82;;;26.90;99.90;;;;;;5030281;28;20213;-52
2022/09/12 12:00:53;;;;;;;5.20;1.00;;;26.80;99.90;;;;;;5030101;28;20177;-53
2022/09/12 12:03:37;;;;;;;1.48;0.60;;;26.70;99.90;;;;;;5029729;28;20169;-51
2022/09/12 12:06:11;;;;;;;3.42;1.05;;;26.40;99.90;;;;;;5029805;28;20221;-51
2022/09/12 12:08:40;;;;;;;3.13;1.27;;;26.30;99.90;;;;;;5010388;28;20171;-52
2022/09/12 12:11:09;;;;;;;2.13;0.70;;;26.30;99.90;;;;;;5027867;28;20300;-52
2022/09/12 12:13:39;;;;;;;4.15;1.08;;;26.30;99.90;;;;;;5029808;28;20201;-52
2022/09/12 12:16:07;;;;;;;2.50;0.98;;;26.10;99.90;;;;;;5029442;28;20178;-53
2022/09/12 12:18:36;;;;;;;4.13;1.00;;;26.10;99.90;;;;;;5030211;28;20178;-51
2022/09/12 12:21:30;;;;;;;5.25;1.50;;;25.90;99.90;;;;;;5032059;28;20261;-52
2022/09/12 12:24:07;;;;;;;5.15;0.98;;;25.30;99.90;;;;;;5033004;28;20174;-52
2022/09/12 12:26:41;;;;;;;2.28;0.80;;;25.80;99.90;;;;;;5033416;28;20260;-51
2022/09/12 12:29:33;;;;;;;4.05;0.90;;;26.10;99.90;;;;;;5033068;28;20220;-52
2022/09/12 12:32:02;;;;;;;1.55;0.90;;;;;;;;;;5025581;28;20241;-52
2022/09/12 12:34:37;;;;;;;14.93;1.17;;;26.10;99.90;;;;;;5033338;28;20181;-51
2022/09/12 12:37:18;;;;;;;2.88;1.08;;;26.50;99.90;;;;;;5030055;28;20185;-52
2022/09/12 12:39:46;;;;;;;3.30;1.08;;;;;;;;;;5032238;28;20695;-52
2022/09/12 12:42:34;;;;;;;5.65;1.13;;;25.90;99.90;;;;;;5032918;28;20221;-52
2022/09/12 12:45:08;;;;;;;4.07;1.42;;;25.80;99.90;;;;;;5033392;28;20174;-52
2022/09/12 12:47:37;;;;;;;8.43;1.42;;;25.60;99.90;;;;;;5033358;28;20329;-52
2022/09/12 12:50:28;;;;;;;2.40;1.45;;;25.60;99.90;;;;;;5032796;28;20185;-52
2022/09/12 12:53:00;;;;;;;4.93;1.35;;;25.60;99.90;;;;;;5031244;28;20184;-52
2022/09/12 12:55:41;;;;;;;13.27;2.15;;;25.50;99.90;;;;;;5033092;28;20181;-52
2022/09/12 12:58:36;;;;;;;3.10;1.38;;;25.40;99.90;;;;;;5033191;28;20169;-52
2022/09/12 13:01:17;;;;;;;5.18;1.35;;;25.50;99.90;;;;;;5028289;28;20190;-52
2022/09/12 13:03:55;;;;;;;8.30;1.80;;;25.60;99.90;;;;;;5032659;28;20204;-52
2022/09/12 13:06:40;;;;;;;8.68;1.55;;;25.60;99.90;;;;;;5032792;28;20260;-52
2022/09/12 13:09:23;;;;;;;4.72;1.50;;;25.60;99.90;;;;;;5032635;28;20178;-52
2022/09/12 13:12:03;;;;;;;3.00;1.38;;;25.70;99.90;;;;;;5032280;28;20225;-52
2022/09/12 13:14:46;;;;;;;4.72;1.63;;;25.20;99.90;;;;;;5032733;28;20182;-52
2022/09/12 13:17:21;;;;;;;7.78;1.80;;;25.10;99.90;;;;;;5031806;28;20190;-52
2022/09/12 13:19:48;;;;;;;4.60;1.40;;;25.10;99.90;;;;;;5032613;28;20181;-52
2022/09/12 13:22:14;;;;;;;5.05;1.40;;;25.00;99.90;;;;;;5032620;28;20632;-52